Time;durP1;ratioP1;P1;durP2;ratioP2;P2;SDS_P1;SDS_P2;PMS_P1;PMS_P2;Temp;Humidity;BMP_temperature;BMP_pressure;BME280_temperature;BME280_humidity;BME280_pressure;Samples;Min_cycle;Max_cycle;Signal;HPM_P1;HPM_P2
2022/03/18 00:01:24;;;;;;;10.48;6.10;;;;;;;2.06;100.00;103146.84;5028585;28;20076;-84
2022/03/18 00:03:52;;;;;;;14.18;5.72;;;;;;;2.05;100.00;103151.91;5027076;28;20052;-84
2022/03/18 00:06:21;;;;;;;11.57;6.70;;;;;;;2.01;100.00;103155.97;5023520;28;20057;-84
2022/03/18 00:08:49;;;;;;;11.85;5.93;;;;;;;1.97;100.00;103151.41;5034047;28;20045;-84
2022/03/18 00:11:16;;;;;;;13.20;5.32;;;;;;;1.96;100.00;103154.75;5033224;28;20040;-84
2022/03/18 00:13:42;;;;;;;12.05;6.15;;;;;;;1.93;100.00;103155.47;5013098;28;20057;-84
2022/03/18 00:16:10;;;;;;;15.73;6.45;;;;;;;1.90;100.00;103160.41;5035509;28;20086;-84
2022/03/18 00:18:39;;;;;;;13.10;5.55;;;;;;;1.90;100.00;103165.56;5018947;28;20083;-84
2022/03/18 00:21:07;;;;;;;11.18;5.75;;;;;;;1.87;100.00;103160.19;5017460;28;20044;-84
2022/03/18 00:23:34;;;;;;;14.07;6.22;;;;;;;1.86;100.00;103160.09;5018666;28;20071;-84
2022/03/18 00:26:01;;;;;;;12.75;6.03;;;;;;;1.83;100.00;103167.66;5017541;28;20049;-85
2022/03/18 00:28:29;;;;;;;15.70;6.10;;;;;;;1.80;100.00;103158.00;5018452;28;20037;-84
2022/03/18 00:30:57;;;;;;;11.05;5.68;;;;;;;1.79;100.00;103166.56;5039877;28;20048;-84
2022/03/18 00:33:27;;;;;;;13.30;7.30;;;;;;;1.78;100.00;103155.31;5022723;28;20048;-84
2022/03/18 00:35:54;;;;;;;15.48;6.45;;;;;;;1.76;100.00;103169.81;5040022;28;20392;-84
2022/03/18 00:38:21;;;;;;;17.65;7.30;;;;;;;1.74;100.00;103179.13;5021317;28;20037;-84
2022/03/18 00:40:50;;;;;;;10.90;7.35;;;;;;;1.74;100.00;103175.66;5036135;28;20044;-84
2022/03/18 00:43:18;;;;;;;11.05;6.07;;;;;;;1.74;100.00;103178.25;5021756;28;20048;-84
2022/03/18 00:45:44;;;;;;;18.10;8.02;;;;;;;1.73;100.00;103176.47;5021159;28;20783;-85
2022/03/18 00:53:54;;;;;;;11.73;7.60;;;;;;;1.74;100.00;103183.41;5015893;28;20048;-84
2022/03/18 00:56:21;;;;;;;11.48;6.72;;;;;;;1.70;100.00;103181.41;5018400;28;20085;-84
2022/03/18 00:58:48;;;;;;;17.10;6.78;;;;;;;1.68;100.00;103185.56;5019706;28;20047;-84
2022/03/18 01:01:15;;;;;;;17.10;7.25;;;;;;;1.63;100.00;103183.56;5037151;28;20049;-84
2022/03/18 01:03:41;;;;;;;14.75;6.93;;;;;;;1.59;100.00;103181.59;5020287;28;20045;-84
2022/03/18 01:06:08;;;;;;;11.43;6.55;;;;;;;1.57;100.00;103174.53;5023496;28;20052;-84
2022/03/18 01:08:34;;;;;;;20.83;6.70;;;;;;;1.52;100.00;103181.06;5035670;28;20048;-84
2022/03/18 01:11:02;;;;;;;13.75;7.65;;;;;;;1.45;100.00;103190.06;5022080;28;20087;-84
2022/03/18 01:13:28;;;;;;;11.60;6.93;;;;;;;1.37;100.00;103189.53;5033523;28;20549;-84
2022/03/18 01:15:55;;;;;;;14.23;7.40;;;;;;;1.34;100.00;103186.72;5034020;28;20560;-84
2022/03/18 01:18:21;;;;;;;13.13;6.57;;;;;;;1.29;100.00;103190.66;5035056;28;20072;-83
2022/03/18 01:20:51;;;;;;;12.57;7.63;;;;;;;1.25;100.00;103201.56;5034987;28;20056;-84
2022/03/18 01:23:17;;;;;;;13.25;6.60;;;;;;;1.23;100.00;103200.56;5020011;28;20414;-84
2022/03/18 01:25:44;;;;;;;19.63;7.00;;;;;;;1.22;100.00;103201.34;5018867;28;20395;-84
2022/03/18 01:28:11;;;;;;;12.48;6.18;;;;;;;1.20;100.00;103198.66;5023669;28;20076;-84
2022/03/18 01:30:37;;;;;;;10.25;6.32;;;;;;;1.19;100.00;103201.13;5016446;28;20561;-85
2022/03/18 01:33:04;;;;;;;11.23;6.63;;;;;;;1.16;100.00;103196.63;5035716;28;20052;-84
2022/03/18 01:35:30;;;;;;;12.60;6.65;;;;;;;1.15;100.00;103197.44;5021679;28;20043;-84
2022/03/18 01:37:57;;;;;;;18.05;8.05;;;;;;;1.14;100.00;103203.38;5036154;28;20105;-85
2022/03/18 01:40:23;;;;;;;10.63;5.95;;;;;;;1.14;100.00;103203.38;5022624;28;20045;-84
2022/03/18 01:42:50;;;;;;;15.35;6.20;;;;;;;1.14;100.00;103193.94;5018211;28;20048;-84
2022/03/18 01:45:17;;;;;;;11.43;7.30;;;;;;;1.15;100.00;103200.03;5018048;28;20117;-84
2022/03/18 01:47:44;;;;;;;14.60;7.68;;;;;;;1.14;100.00;103201.69;5019096;28;20136;-84
2022/03/18 01:50:15;;;;;;;13.70;6.05;;;;;;;1.14;100.00;103203.38;5021082;28;20075;-84
2022/03/18 01:52:45;;;;;;;12.13;6.57;;;;;;;1.15;100.00;103207.75;5035453;28;20411;-84
2022/03/18 01:55:14;;;;;;;13.10;7.28;;;;;;;1.15;100.00;103206.06;5032807;28;20040;-84
2022/03/18 01:57:40;;;;;;;17.70;8.07;;;;;;;1.19;100.00;103211.44;5025163;28;20568;-84
2022/03/18 02:00:07;;;;;;;14.63;7.57;;;;;;;1.21;100.00;103218.50;5039419;28;20114;-85
2022/03/18 02:02:34;;;;;;;16.30;7.32;;;;;;;1.24;100.00;103220.41;5023061;28;20038;-85
2022/03/18 02:05:00;;;;;;;16.88;7.88;;;;;;;1.23;100.00;103224.69;5027178;28;20049;-84
2022/03/18 02:07:28;;;;;;;11.57;6.32;;;;;;;1.22;100.00;103230.63;5018177;28;20052;-84
2022/03/18 02:09:56;;;;;;;21.55;7.32;;;;;;;1.21;100.00;103231.41;5023714;28;20536;-84
2022/03/18 02:12:23;;;;;;;14.93;7.13;;;;;;;1.20;100.00;103226.13;5038560;28;20048;-84
2022/03/18 02:14:49;;;;;;;12.98;6.70;;;;;;;1.21;100.00;103233.97;5023586;28;20048;-83
2022/03/18 02:17:18;;;;;;;17.90;7.40;;;;;;;1.21;100.00;103233.97;5025955;28;20587;-84
2022/03/18 02:19:47;;;;;;;10.23;6.03;;;;;;;1.21;100.00;103235.69;5023429;28;20052;-84
2022/03/18 02:22:25;;;;;;;12.48;7.15;;;;;;;1.21;100.00;103243.41;5036212;28;20037;-84
2022/03/18 02:24:54;;;;;;;12.98;6.45;;;;;;;1.18;100.00;103249.25;5035212;28;20055;-84
2022/03/18 02:27:22;;;;;;;16.40;6.72;;;;;;;1.15;100.00;103243.88;5021317;28;20041;-84
2022/03/18 02:29:49;;;;;;;16.27;6.72;;;;;;;1.14;100.00;103244.66;5032506;28;20040;-84
2022/03/18 02:32:16;;;;;;;16.52;7.10;;;;;;;1.14;100.00;103252.41;5035990;28;20044;-84
2022/03/18 02:34:43;;;;;;;17.98;6.85;;;;;;;1.12;100.00;103257.47;5015717;28;20063;-84
2022/03/18 02:37:10;;;;;;;14.88;6.13;;;;;;;1.12;100.00;103253.97;5048866;28;20049;-84
2022/03/18 02:39:36;;;;;;;11.77;5.93;;;;;;;1.10;100.00;103256.44;5036270;28;20044;-84
2022/03/18 02:42:04;;;;;;;8.40;5.70;;;;;;;1.06;100.00;103263.88;5016684;28;20057;-84
2022/03/18 02:44:32;;;;;;;12.75;6.35;;;;;;;1.03;100.00;103258.47;5033864;28;20533;-84
2022/03/18 02:46:59;;;;;;;15.23;7.63;;;;;;;1.03;100.00;103266.19;5017812;28;20071;-84
2022/03/18 02:49:25;;;;;;;14.35;6.65;;;;;;;1.01;100.00;103270.38;5037354;28;20040;-83
2022/03/18 02:51:52;;;;;;;17.00;6.45;;;;;;;1.01;100.00;103273.84;5009062;28;20052;-84
2022/03/18 02:54:19;;;;;;;9.57;6.50;;;;;;;0.99;100.00;103276.31;5022452;28;20694;-84
2022/03/18 02:56:46;;;;;;;9.70;5.88;;;;;;;0.99;100.00;103270.22;5017132;28;20068;-84
2022/03/18 02:59:12;;;;;;;14.23;5.90;;;;;;;0.99;100.00;103275.41;5035367;28;20041;-84
2022/03/18 03:01:39;;;;;;;11.70;6.93;;;;;;;1.01;100.00;103278.13;5039252;28;20044;-84
2022/03/18 03:04:06;;;;;;;18.88;6.70;;;;;;;1.01;100.00;103280.69;5020427;28;20140;-84
2022/03/18 03:09:17;;;;;;;15.07;6.72;;;;;;;0.95;100.00;103287.19;5025227;28;20037;-84
2022/03/18 03:11:47;;;;;;;11.55;5.82;;;;;;;0.95;100.00;103292.34;5026937;28;20037;-84
2022/03/18 03:14:14;;;;;;;19.55;6.68;;;;;;;0.96;100.00;103295.81;5055399;28;20071;-84
2022/03/18 03:16:42;;;;;;;11.68;5.97;;;;;;;0.96;100.00;103293.25;5037202;28;20049;-83
2022/03/18 03:19:08;;;;;;;9.85;5.00;;;;;;;0.97;100.00;103300.19;5025029;28;20044;-83
2022/03/18 03:21:35;;;;;;;10.85;5.68;;;;;;;0.95;100.00;103297.50;5039478;28;20045;-84
2022/03/18 03:24:02;;;;;;;11.25;5.50;;;;;;;0.93;100.00;103298.19;5039651;28;20060;-83
2022/03/18 03:26:29;;;;;;;13.85;5.28;;;;;;;0.93;100.00;103309.38;5039300;28;20098;-84
2022/03/18 03:28:55;;;;;;;12.88;5.57;;;;;;;0.89;100.00;103307.38;5035668;28;20059;-84
2022/03/18 03:31:22;;;;;;;13.65;6.22;;;;;;;0.85;100.00;103323.41;5037993;28;20060;-84
2022/03/18 03:33:49;;;;;;;10.82;5.32;;;;;;;0.84;100.00;103326.75;5028890;28;20049;-84
2022/03/18 03:36:15;;;;;;;8.95;5.43;;;;;;;0.80;100.00;103332.47;5032015;28;20037;-84
2022/03/18 03:38:42;;;;;;;11.95;5.60;;;;;;;0.76;100.00;103327.88;5036186;28;20061;-83
2022/03/18 03:41:09;;;;;;;12.35;5.68;;;;;;;0.72;100.00;103334.50;5048066;28;20056;-84
2022/03/18 03:43:35;;;;;;;15.52;5.82;;;;;;;0.70;100.00;103351.50;5017594;28;20127;-84
2022/03/18 03:46:02;;;;;;;18.15;6.65;;;;;;;0.64;100.00;103345.91;5032337;28;20041;-84
2022/03/18 03:48:31;;;;;;;15.10;6.28;;;;;;;0.60;100.00;103349.94;5023555;28;20462;-84
2022/03/18 03:50:57;;;;;;;15.15;5.38;;;;;;;0.57;100.00;103348.81;5037920;28;20132;-83
2022/03/18 03:53:24;;;;;;;10.15;5.90;;;;;;;0.57;100.00;103359.13;5033536;28;20075;-83
2022/03/18 03:55:51;;;;;;;12.27;6.32;;;;;;;0.56;100.00;103365.03;5038760;28;20039;-84
2022/03/18 03:58:18;;;;;;;15.05;7.25;;;;;;;0.54;100.00;103367.50;5035056;28;20380;-83
2022/03/18 04:00:44;;;;;;;11.95;5.45;;;;;;;0.54;100.00;103369.19;5017516;28;20045;-84
2022/03/18 04:03:13;;;;;;;12.25;5.72;;;;;;;0.45;100.00;103367.69;5021097;28;20052;-84
2022/03/18 04:05:39;;;;;;;12.32;5.10;;;;;;;0.39;100.00;103374.97;5045490;28;20064;-84
2022/03/18 04:08:06;;;;;;;19.77;6.60;;;;;;;0.33;100.00;103384.81;5021688;28;20072;-83
2022/03/18 04:10:32;;;;;;;15.05;6.35;;;;;;;0.30;100.00;103384.56;5032643;28;20099;-83
2022/03/18 04:12:59;;;;;;;29.63;8.55;;;;;;;0.27;100.00;103382.63;5019852;28;20350;-83
2022/03/18 04:15:26;;;;;;;12.43;5.95;;;;;;;0.28;100.00;103384.44;5017399;28;20143;-84
2022/03/18 04:17:53;;;;;;;11.82;4.97;;;;;;;0.29;100.00;103382.78;5023542;28;20088;-84
2022/03/18 04:20:23;;;;;;;12.85;5.90;;;;;;;0.34;100.00;103394.34;5031758;28;20301;-83
2022/03/18 04:22:54;;;;;;;11.73;5.22;;;;;;;0.36;100.00;103394.47;5018106;28;20049;-84
2022/03/18 04:25:21;;;;;;;11.10;5.43;;;;;;;0.37;100.00;103398.84;5021363;28;20087;-84
2022/03/18 04:27:48;;;;;;;15.73;6.68;;;;;;;0.35;100.00;103405.53;5034043;28;20430;-84
2022/03/18 04:30:16;;;;;;;11.93;5.90;;;;;;;0.36;100.00;103403.06;5036746;28;20060;-83
2022/03/18 04:32:43;;;;;;;16.75;6.20;;;;;;;0.34;100.00;103396.94;5033214;28;20041;-83
2022/03/18 04:35:12;;;;;;;12.30;5.53;;;;;;;0.32;100.00;103404.50;5018878;28;20069;-83
2022/03/18 04:37:43;;;;;;;21.10;5.85;;;;;;;0.30;100.00;103406.09;5038466;28;20434;-84
2022/03/18 04:40:12;;;;;;;14.98;5.18;;;;;;;0.29;100.00;103398.25;5017172;28;20107;-84
2022/03/18 04:42:40;;;;;;;9.68;5.10;;;;;;;0.30;100.00;103398.34;5019440;28;20136;-84
2022/03/18 04:45:07;;;;;;;17.02;4.75;;;;;;;0.31;100.00;103399.25;5030066;28;20053;-83
2022/03/18 04:47:35;;;;;;;13.40;5.30;;;;;;;0.31;100.00;103409.53;5032841;28;20063;-83
2022/03/18 04:50:02;;;;;;;13.48;5.07;;;;;;;0.30;100.00;103423.22;5015138;28;20128;-84
2022/03/18 04:52:28;;;;;;;12.30;4.70;;;;;;;0.29;100.00;103421.44;5009051;28;20056;-84
2022/03/18 04:54:55;;;;;;;14.85;7.07;;;;;;;0.27;100.00;103426.44;5046927;28;20057;-84
2022/03/18 04:57:22;;;;;;;20.38;5.82;;;;;;;0.25;100.00;103421.94;5012391;28;20041;-84
2022/03/18 04:59:52;;;;;;;8.25;5.00;;;;;;;0.23;100.00;103426.97;5032327;28;20041;-84
2022/03/18 05:02:20;;;;;;;16.95;5.60;;;;;;;0.21;100.00;103428.56;5022559;28;20084;-84
2022/03/18 05:04:48;;;;;;;15.32;6.05;;;;;;;0.19;100.00;103434.38;5026498;28;20045;-83
2022/03/18 05:07:15;;;;;;;14.00;6.55;;;;;;;0.20;100.00;103436.19;5009683;28;20041;-84
2022/03/18 05:09:45;;;;;;;16.90;6.35;;;;;;;0.19;100.00;103436.94;5026449;28;20029;-83
2022/03/18 05:12:14;;;;;;;12.00;5.47;;;;;;;0.18;100.00;103435.13;5026507;28;20148;-83
2022/03/18 05:14:41;;;;;;;15.95;7.63;;;;;;;0.14;100.00;103437.50;5027139;28;20881;-84
2022/03/18 05:17:10;;;;;;;17.40;5.95;;;;;;;0.11;100.00;103447.53;5016088;28;20052;-83
2022/03/18 05:19:38;;;;;;;23.92;9.85;;;;;;;0.12;100.00;103448.44;5016061;28;20041;-84
2022/03/18 05:22:07;;;;;;;19.38;8.20;;;;;;;0.10;100.00;103447.41;5015454;28;20053;-84
2022/03/18 05:24:33;;;;;;;11.20;6.10;;;;;;;0.07;100.00;103447.19;5016230;28;20099;-84
2022/03/18 05:27:00;;;;;;;15.25;6.72;;;;;;;0.04;100.00;103458.16;5016606;28;20080;-84
2022/03/18 05:29:27;;;;;;;15.32;8.20;;;;;;;0.01;100.00;103463.03;5030217;28;20119;-83
2022/03/18 05:31:54;;;;;;;16.27;7.03;;;;;;;-0.01;100.00;103472.31;5028230;28;20103;-84
2022/03/18 05:34:20;;;;;;;10.48;6.30;;;;;;;-0.05;100.00;103484.06;5014350;28;21126;-83
2022/03/18 05:36:47;;;;;;;12.80;6.40;;;;;;;-0.06;100.00;103482.25;5007511;28;20049;-84
2022/03/18 05:39:13;;;;;;;17.75;7.35;;;;;;;-0.05;100.00;103480.59;5029738;28;20130;-84
2022/03/18 05:41:43;;;;;;;14.05;7.60;;;;;;;-0.08;100.00;103481.25;5025074;28;20284;-84
2022/03/18 05:44:10;;;;;;;19.20;8.57;;;;;;;-0.09;100.00;103479.44;5010804;28;20049;-85
2022/03/18 05:46:37;;;;;;;11.35;7.90;;;;;;;-0.11;100.00;103478.41;5003251;28;20189;-84
2022/03/18 05:49:04;;;;;;;16.95;7.90;;;;;;;-0.15;100.00;103481.50;5017386;28;20044;-84
2022/03/18 05:51:31;;;;;;;24.17;8.40;;;;;;;-0.19;100.00;103475.22;5013210;28;20071;-83
2022/03/18 05:53:58;;;;;;;11.18;7.10;;;;;;;-0.18;100.00;103476.13;5030395;28;20053;-84
2022/03/18 05:59:10;;;;;;;;;;;;;;;-0.22;100.00;103499.78;5035480;28;20030;-85
2022/03/18 06:01:39;;;;;;;17.05;5.95;;;;;;;-0.23;100.00;103504.06;5032317;28;19935;-84
2022/03/18 06:04:10;;;;;;;19.45;8.65;;;;;;;-0.23;100.00;103506.63;5026537;28;20052;-84
2022/03/18 06:06:41;;;;;;;23.67;13.23;;;;;;;-0.23;100.00;103506.63;5033789;28;20071;-84
2022/03/18 06:11:52;;;;;;;23.10;12.05;;;;;;;-0.14;100.00;103518.44;5019501;28;20142;-83
2022/03/18 06:14:25;;;;;;;26.05;11.02;;;;;;;-0.06;100.00;103517.41;5014570;28;20055;-84
2022/03/18 06:16:57;;;;;;;18.60;10.45;;;;;;;-0.02;100.00;103514.31;5033691;28;20067;-84
2022/03/18 06:19:25;;;;;;;24.27;10.93;;;;;;;0.03;100.00;103517.22;5017357;28;21170;-84
2022/03/18 06:21:52;;;;;;;22.75;11.35;;;;;;;0.08;100.00;103509.13;5017315;28;20041;-84
2022/03/18 06:24:21;;;;;;;18.40;10.93;;;;;;;0.14;100.00;103508.69;5036234;28;20074;-84
2022/03/18 06:26:52;;;;;;;25.60;12.13;;;;;;;0.20;100.00;103518.63;5037068;28;20045;-84
2022/03/18 06:29:20;;;;;;;21.10;13.90;;;;;;;0.26;100.00;103517.41;5033299;28;20040;-83
2022/03/18 06:31:47;;;;;;;18.10;9.98;;;;;;;0.34;100.00;103528.34;5032803;28;20052;-83
2022/03/18 06:34:14;;;;;;;18.25;11.00;;;;;;;0.48;100.00;103535.47;5048784;23;20042;-89
2022/03/18 06:39:26;;;;;;;12.43;9.45;;;;;;;1.24;100.00;103545.53;5001676;28;20128;-91
2022/03/18 06:41:58;;;;;;;15.10;7.90;;;;;;;1.69;100.00;103554.94;4975769;28;20053;-87
2022/03/18 06:44:25;;;;;;;16.30;7.53;;;;;;;2.12;100.00;103568.44;4974819;28;20695;-88
2022/03/18 06:46:55;;;;;;;14.77;9.07;;;;;;;2.52;100.00;103565.25;4986400;28;20477;-87
2022/03/18 06:49:27;;;;;;;13.80;6.70;;;;;;;2.92;100.00;103565.47;5008667;28;20046;-86
2022/03/18 06:51:56;;;;;;;9.57;7.00;;;;;;;3.34;100.00;103572.56;4977371;28;20769;-86
2022/03/18 06:54:24;;;;;;;19.92;8.00;;;;;;;3.63;100.00;103565.06;4991431;28;20377;-87
2022/03/18 06:56:54;;;;;;;18.52;8.30;;;;;;;3.94;100.00;103572.28;4997754;28;20058;-89
2022/03/18 06:59:21;;;;;;;10.63;5.70;;;;;;;4.28;100.00;103583.94;4995324;28;20061;-91
2022/03/18 07:01:48;;;;;;;9.77;5.25;;;;;;;4.62;100.00;103586.97;4994469;28;20049;-89
2022/03/18 07:07:03;;;;;;;12.88;5.63;;;;;;;5.36;100.00;103575.03;4984119;28;20057;-87
2022/03/18 07:09:33;;;;;;;12.48;6.22;;;;;;;5.74;100.00;103591.97;4993528;28;20109;-87
2022/03/18 07:12:16;;;;;;;14.80;5.07;;;;;;;6.04;100.00;103601.50;4995751;28;20082;-87
2022/03/18 07:14:43;;;;;;;12.35;6.45;;;;;;;6.35;100.00;103598.03;4994627;28;20042;-89
2022/03/18 07:19:55;;;;;;;20.50;7.40;;;;;;;6.93;96.83;103593.41;4993436;28;20038;-87
2022/03/18 07:22:33;;;;;;;16.65;5.55;;;;;;;7.26;94.21;103596.00;4987569;28;20461;-88
2022/03/18 07:25:09;;;;;;;8.85;4.78;;;;;;;7.66;91.39;103591.06;4990623;28;20061;-90
2022/03/18 07:30:56;;;;;;;8.90;5.30;;;;;;;8.46;83.18;103591.47;4989804;28;20130;-86
2022/03/18 07:33:23;;;;;;;11.13;4.97;;;;;;;8.63;80.77;103590.56;4984661;28;20106;-86
2022/03/18 07:35:49;;;;;;;12.48;5.22;;;;;;;8.85;78.63;103584.59;4969987;28;20112;-87
2022/03/18 07:38:16;;;;;;;17.35;5.85;;;;;;;9.14;77.22;103579.78;4984894;28;20059;-86
2022/03/18 07:40:43;;;;;;;18.73;6.43;;;;;;;9.41;75.94;103589.63;4972801;28;20066;-89
2022/03/18 07:43:10;;;;;;;7.97;5.20;;;;;;;9.71;74.25;103589.16;4987186;28;20050;-88
2022/03/18 07:45:38;;;;;;;15.60;5.70;;;;;;;10.01;72.26;103586.94;4976452;28;20088;-89
2022/03/18 07:48:08;;;;;;;7.82;4.55;;;;;;;10.30;69.24;103588.91;4990416;28;20058;-88
2022/03/18 07:50:38;;;;;;;13.20;5.38;;;;;;;10.42;68.34;103589.44;4972143;28;20387;-86
2022/03/18 07:53:10;;;;;;;12.32;5.40;;;;;;;10.75;67.84;103596.78;4983517;28;20153;-86
2022/03/18 07:55:40;;;;;;;15.82;5.60;;;;;;;11.08;66.35;103596.22;4986776;28;20112;-86
2022/03/18 07:58:07;;;;;;;13.27;5.50;;;;;;;11.11;63.35;103598.06;4974337;28;20466;-85
2022/03/18 08:00:34;;;;;;;11.23;4.75;;;;;;;11.40;63.76;103602.63;4970348;28;20043;-86
2022/03/18 08:03:03;;;;;;;12.73;5.32;;;;;;;11.66;62.12;103599.13;4975674;28;20046;-86
2022/03/18 08:05:30;;;;;;;8.90;4.93;;;;;;;11.67;61.13;103593.94;5014613;28;20049;-93
2022/03/18 08:07:59;;;;;;;10.38;4.40;;;;;;;11.90;60.91;103585.91;5007997;28;20038;-87
2022/03/18 08:10:26;;;;;;;17.08;6.70;;;;;;;11.68;60.77;103592.19;5016081;28;20038;-84
2022/03/18 08:15:46;;;;;;;8.90;4.28;;;;;;;10.24;62.32;103593.06;4993536;28;20520;-87
2022/03/18 08:18:16;;;;;;;14.60;4.40;;;;;;;9.91;63.06;103588.25;4992466;28;20120;-87
2022/03/18 08:20:43;;;;;;;11.95;3.75;;;;;;;10.29;62.43;103588.03;5000219;28;20042;-89
2022/03/18 08:23:14;;;;;;;12.10;4.35;;;;;;;11.10;60.54;103594.56;5001738;28;20125;-88
2022/03/18 08:25:44;;;;;;;8.18;2.75;;;;;;;11.95;56.77;103589.63;4980002;28;20129;-85
2022/03/18 08:28:11;;;;;;;14.75;3.42;;;;;;;12.50;54.33;103597.47;4974430;28;20620;-85
2022/03/18 08:30:40;;;;;;;7.70;2.45;;;;;;;12.92;52.35;103594.31;4973625;28;20508;-85
2022/03/18 08:33:07;;;;;;;13.43;3.28;;;;;;;13.38;51.27;103597.38;4988811;28;20046;-85
2022/03/18 08:35:36;;;;;;;5.53;2.88;;;;;;;13.78;50.19;103605.38;4988986;28;20050;-85
2022/03/18 08:38:07;;;;;;;9.82;2.75;;;;;;;14.15;49.06;103614.19;4976673;28;20050;-86
2022/03/18 08:40:36;;;;;;;11.73;4.00;;;;;;;14.44;47.95;103613.97;4973982;28;20060;-88
2022/03/18 08:43:11;;;;;;;8.10;4.75;;;;;;;14.60;47.11;103618.75;4989360;28;20041;-86
2022/03/18 08:45:39;;;;;;;11.20;4.35;;;;;;;14.92;47.04;103630.84;4989323;28;20104;-85
2022/03/18 08:48:07;;;;;;;5.47;2.08;;;;;;;15.19;46.20;103641.97;4986976;28;20115;-87
2022/03/18 08:50:34;;;;;;;5.38;2.38;;;;;;;15.41;45.73;103641.47;4988374;28;20060;-86
2022/03/18 08:53:00;;;;;;;8.30;2.80;;;;;;;15.77;45.08;103646.53;4972392;28;20091;-87
2022/03/18 08:55:27;;;;;;;8.02;2.92;;;;;;;16.13;43.85;103641.88;4986283;28;20046;-91
2022/03/18 08:57:54;;;;;;;7.85;2.50;;;;;;;16.45;43.48;103641.44;4991574;28;20050;-88
2022/03/18 09:00:23;;;;;;;8.80;2.80;;;;;;;16.77;42.62;103643.66;4988697;28;20109;-87
2022/03/18 09:02:51;;;;;;;10.60;3.58;;;;;;;16.95;42.34;103643.03;4989203;28;20054;-85
2022/03/18 09:05:29;;;;;;;8.50;3.80;;;;;;;17.25;41.92;103650.44;4975141;28;20064;-93
2022/03/18 09:07:56;;;;;;;7.90;2.65;;;;;;;17.53;41.22;103658.66;4989442;28;20054;-85
2022/03/18 09:10:24;;;;;;;9.90;2.50;;;;;;;17.78;41.23;103662.47;4991323;28;20125;-90
2022/03/18 09:12:58;;;;;;;10.15;2.72;;;;;;;18.07;39.82;103674.19;4990969;28;20058;-87
2022/03/18 09:15:26;;;;;;;4.38;2.38;;;;;;;18.19;40.14;103669.00;5001749;28;20050;-85
2022/03/18 09:17:52;;;;;;;8.15;2.90;;;;;;;18.15;39.85;103676.03;4988437;28;20050;-87
2022/03/18 09:20:19;;;;;;;6.95;2.92;;;;;;;17.49;40.73;103670.09;4975527;28;20047;-84
2022/03/18 09:22:47;;;;;;;12.18;5.18;;;;;;;16.29;42.13;103675.59;4988639;28;20041;-87
2022/03/18 09:25:16;;;;;;;6.95;3.67;;;;;;;14.80;43.99;103687.75;4978679;28;20480;-87
2022/03/18 09:27:43;;;;;;;8.20;3.53;;;;;;;13.44;46.82;103694.00;4973770;28;20073;-91
2022/03/18 09:30:11;;;;;;;9.65;3.53;;;;;;;12.45;48.90;103698.88;4974053;28;20047;-90
2022/03/18 09:32:42;;;;;;;11.88;3.40;;;;;;;11.49;51.12;103699.13;4972117;28;20050;-89
2022/03/18 09:35:11;;;;;;;8.40;3.85;;;;;;;10.84;53.15;103701.94;4980184;28;20165;-87
2022/03/18 09:37:38;;;;;;;10.68;3.95;;;;;;;10.47;54.36;103700.50;4988694;28;20148;-89
2022/03/18 09:40:08;;;;;;;13.32;4.03;;;;;;;10.24;55.19;103720.47;4985496;28;20165;-90
2022/03/18 09:42:53;;;;;;;10.88;4.18;;;;;;;9.98;55.41;103722.88;4972254;28;20044;-87
2022/03/18 09:45:22;;;;;;;8.05;3.05;;;;;;;9.80;55.74;103722.97;4986810;28;20057;-91
2022/03/18 09:47:50;;;;;;;9.32;2.95;;;;;;;9.71;56.68;103725.19;4974563;28;20078;-86
2022/03/18 09:50:17;;;;;;;11.98;3.30;;;;;;;9.89;56.57;103725.97;4989230;28;20104;-92
2022/03/18 09:52:44;;;;;;;4.65;2.45;;;;;;;11.02;54.52;103727.09;4986517;28;20047;-87
2022/03/18 09:55:11;;;;;;;5.85;2.40;;;;;;;12.78;49.68;103717.47;4975491;28;20077;-94
2022/03/18 09:57:39;;;;;;;6.10;2.33;;;;;;;14.47;46.36;103716.81;5006671;28;20118;-95
2022/03/18 10:00:06;;;;;;;9.88;3.13;;;;;;;16.15;43.46;103715.03;4994353;28;20038;-86
2022/03/18 10:02:36;;;;;;;9.35;3.13;;;;;;;17.76;39.95;103716.31;4976702;28;20034;-89
2022/03/18 10:05:15;;;;;;;7.55;2.70;;;;;;;19.05;38.27;103721.72;5001515;28;20053;-88
2022/03/18 10:07:56;;;;;;;9.18;2.90;;;;;;;20.25;36.06;103722.84;4990802;28;20493;-91
2022/03/18 10:10:24;;;;;;;11.18;3.20;;;;;;;21.14;34.56;103727.94;4998045;28;20114;-88
2022/03/18 10:12:56;;;;;;;5.97;2.50;;;;;;;21.07;32.95;103718.22;4999950;28;20054;-94
2022/03/18 10:15:27;;;;;;;11.23;3.40;;;;;;;20.85;32.90;103709.44;4972598;28;21280;-89
2022/03/18 10:20:42;;;;;;;;;;;;;;;20.96;31.95;103717.38;5004137;28;20046;-88
2022/03/18 10:23:18;;;;;;;5.25;2.42;;;;;;;21.60;32.15;103708.22;4991205;28;19932;-87
2022/03/18 10:25:54;;;;;;;5.82;2.42;;;;;;;22.28;32.07;103721.00;5012615;28;20031;-88
2022/03/18 10:28:36;;;;;;;5.72;2.72;;;;;;;22.56;30.36;103719.88;4988505;28;20050;-87
2022/03/18 10:31:25;;;;;;;5.93;2.97;;;;;;;22.69;28.80;103741.97;5006594;28;20097;-92
2022/03/18 10:37:06;;;;;;;8.70;2.83;;;;;;;22.35;30.12;103735.16;5002081;28;20042;-88
2022/03/18 10:39:42;;;;;;;5.13;2.63;;;;;;;22.55;29.50;103728.75;4994291;28;20467;-90
2022/03/18 10:42:21;;;;;;;6.50;2.97;;;;;;;22.80;29.53;103734.72;5002700;28;20057;-91
2022/03/18 10:45:06;;;;;;;5.28;2.45;;;;;;;23.43;28.94;103741.94;5005879;28;20045;-94
2022/03/18 10:47:43;;;;;;;5.65;2.75;;;;;;;23.91;27.89;103735.91;5012053;28;20049;-87
2022/03/18 10:50:12;;;;;;;4.63;2.70;;;;;;;24.22;27.70;103737.19;4993183;28;20050;-85
2022/03/18 10:52:40;;;;;;;6.13;2.63;;;;;;;24.56;27.39;103734.78;5006270;28;20043;-86
2022/03/18 10:55:25;;;;;;;6.32;2.75;;;;;;;24.97;26.29;103742.91;4991007;28;20038;-84
2022/03/18 10:57:56;;;;;;;6.10;2.70;;;;;;;25.24;26.25;103740.56;4977927;28;20049;-85
2022/03/18 11:00:28;;;;;;;4.15;2.30;;;;;;;25.62;26.22;103732.56;4992919;28;20061;-85
2022/03/18 11:02:59;;;;;;;9.70;2.97;;;;;;;26.09;25.48;103734.09;4991561;28;20050;-91
2022/03/18 11:05:32;;;;;;;5.95;2.42;;;;;;;26.44;25.29;103744.84;4969983;28;20121;-87
2022/03/18 11:08:02;;;;;;;8.13;3.63;;;;;;;26.27;23.81;103739.03;4975751;28;20054;-83
2022/03/18 11:13:18;;;;;;;8.32;2.80;;;;;;;25.67;24.98;103733.34;4986240;28;20081;-85
2022/03/18 11:15:46;;;;;;;7.25;2.40;;;;;;;25.58;24.18;103746.06;4988016;28;20046;-85
2022/03/18 11:18:14;;;;;;;5.70;2.65;;;;;;;25.69;24.79;103731.53;4990049;28;20049;-84
2022/03/18 11:20:44;;;;;;;6.60;3.00;;;;;;;25.90;24.17;103735.47;4988196;28;20058;-85
2022/03/18 11:23:23;;;;;;;6.32;2.42;;;;;;;26.12;23.70;103729.59;4991500;28;20132;-87
2022/03/18 11:26:00;;;;;;;7.88;3.33;;;;;;;25.95;24.07;103735.38;4985429;28;20058;-84
2022/03/18 11:28:28;;;;;;;4.53;2.38;;;;;;;25.45;24.24;103741.91;4972069;28;20050;-84
2022/03/18 11:31:23;;;;;;;5.50;2.55;;;;;;;25.50;23.73;103731.97;4975439;28;20639;-83
2022/03/18 11:34:12;;;;;;;7.43;2.60;;;;;;;25.54;23.58;103732.75;4985203;28;20054;-85
2022/03/18 11:36:47;;;;;;;3.70;2.45;;;;;;;25.77;24.38;103726.84;4953969;28;20066;-88
2022/03/18 11:39:22;;;;;;;6.20;2.05;;;;;;;26.54;23.52;103729.34;4955549;28;20049;-83
2022/03/18 11:41:52;;;;;;;5.07;2.10;;;;;;;27.34;22.82;103728.78;4953068;28;20113;-87
2022/03/18 11:44:45;;;;;;;4.95;2.67;;;;;;;27.93;22.17;103724.25;4967226;28;20157;-84
2022/03/18 11:47:21;;;;;;;8.50;2.58;;;;;;;27.99;21.54;103724.91;4942983;28;20057;-92
2022/03/18 11:52:30;;;;;;;7.95;5.03;;;;;;;27.26;22.22;103729.06;4977942;28;20536;-83
2022/03/18 11:55:14;;;;;;;4.03;2.50;;;;;;;26.54;22.59;103727.56;4956406;28;20054;-86
2022/03/18 11:57:46;;;;;;;5.65;2.75;;;;;;;26.72;22.79;103726.16;4969416;28;20776;-86
2022/03/18 12:00:35;;;;;;;6.10;3.17;;;;;;;26.18;22.89;103724.94;4955330;28;20047;-85
2022/03/18 12:03:02;;;;;;;4.38;2.20;;;;;;;26.16;23.42;103716.03;4967197;28;20675;-84
2022/03/18 12:05:33;;;;;;;11.02;2.97;;;;;;;26.48;23.08;103716.06;4922705;28;20610;-84
2022/03/18 12:08:03;;;;;;;3.83;2.28;;;;;;;27.09;22.93;103718.81;4936660;28;20051;-86